MSC Maya — 3FNF8 — position and weather

sailwx.info

Track history (hours):
 
Tides and Currents Weather Stations Pressure Air Temp Water Temp Dewpoint Dewpoint Depression Visibility Wind Speed Wind Dir Waves Ship Positions

MSC Maya

Last reported at 2015-Aug-21 17:14 UTC. Time now 2015-Sep-05 14:23 UTC.
Position S 33°52' E 026°40'.
Warning: this ship's position is 14 days out of date.

Length 242 m; draft 7.5 m.

Type: Cargo ship. MMSI: 351384000.

Date/timePositionNaut miles runAvg speedWind from/ knotsBaromVisibWave heightAir tempDewpointWater temp
2015-Aug-21 17:14S 33°52' E 026°40'30214.5
2015-Aug-20 20:25S 30°19' E 030°52'1416.5
2015-Aug-20 19:33S 30°06' E 031°00'1414.5
2015-Aug-20 18:33S 29°53' E 031°07'5 5.1
2015-Aug-20 17:33S 29°53' E 031°02'0 0.2
2015-Aug-20 16:33S 29°53' E 031°01'0 0.0
2015-Aug-20 15:33S 29°53' E 031°01'0 0.0
2015-Aug-20 14:30S 29°53' E 031°01'0 0.0
2015-Aug-20 13:33S 29°53' E 031°01'0 0.0
2015-Aug-20 12:24S 29°53' E 031°01'0 0.0
2015-Aug-20 11:33S 29°53' E 031°01'0 0.0
2015-Aug-20 10:30S 29°53' E 031°01'0 0.0
2015-Aug-20 09:33S 29°53' E 031°01'0 0.0
2015-Aug-20 08:30S 29°53' E 031°01'0 0.0
2015-Aug-20 07:30S 29°53' E 031°01'0 0.0
2015-Aug-20 06:32S 29°53' E 031°01'0 0.0
2015-Aug-20 05:29S 29°53' E 031°01'0 0.0
2015-Aug-20 04:32S 29°53' E 031°01'0 0.0
2015-Aug-20 03:32S 29°53' E 031°01'0 0.0
2015-Aug-20 02:32S 29°53' E 031°01'0 0.0
2015-Aug-20 01:32S 29°53' E 031°01'0 0.0
2015-Aug-20 00:32S 29°53' E 031°01'0 0.0
2015-Aug-19 23:32S 29°53' E 031°01'0 0.0
2015-Aug-19 22:32S 29°53' E 031°01'0 0.0
2015-Aug-19 21:32S 29°53' E 031°01'0 0.0
2015-Aug-19 20:32S 29°53' E 031°01'0 0.0
2015-Aug-19 19:29S 29°53' E 031°01'0 0.0
2015-Aug-19 18:32S 29°53' E 031°01'0 0.0
2015-Aug-19 17:33S 29°53' E 031°01'0 0.0
2015-Aug-19 16:33S 29°53' E 031°01'0 0.0
2015-Aug-19 15:33S 29°53' E 031°01'0 0.0
2015-Aug-19 14:33S 29°53' E 031°01'0 0.0
2015-Aug-19 13:33S 29°53' E 031°01'0 0.0
2015-Aug-19 12:31S 29°53' E 031°01'0 0.0
2015-Aug-19 11:33S 29°53' E 031°01'0 0.0
2015-Aug-19 10:33S 29°53' E 031°01'2 1.7
2015-Aug-19 09:33S 29°52' E 031°03'6 6.1
2015-Aug-19 08:33S 29°48' E 031°08'5 4.6
2015-Aug-19 07:33S 29°50' E 031°13'3 3.2
2015-Aug-19 06:33S 29°53' E 031°15'1 1.2
2015-Aug-19 05:33S 29°53' E 031°14'3 2.8
2015-Aug-19 04:33S 29°51' E 031°12'3 2.5
2015-Aug-19 03:33S 29°53' E 031°12'2 2.3
2015-Aug-19 02:33S 29°56' E 031°12'2 2.2
2015-Aug-19 01:33S 29°58' E 031°13'1 1.3
2015-Aug-19 00:33S 29°59' E 031°13'1 0.9
2015-Aug-18 23:33S 29°59' E 031°14'2 1.6
2015-Aug-18 22:33S 29°58' E 031°15'2 1.8
2015-Aug-18 21:33S 29°57' E 031°17'2 1.9
2015-Aug-18 20:33S 29°56' E 031°19'2 2.2
2015-Aug-18 19:33S 29°54' E 031°21'2 2.1
2015-Aug-18 18:33S 29°53' E 031°23'9 9.3
2015-Aug-18 17:33S 30°02' E 031°18'8 7.6
2015-Aug-18 16:33S 30°08' E 031°13'2 1.9
2015-Aug-18 15:33S 30°06' E 031°15'2 1.8
2015-Aug-18 14:33S 30°05' E 031°16'2 1.9
2015-Aug-18 13:33S 30°04' E 031°18'2 1.7
2015-Aug-18 12:33S 30°03' E 031°20'2 1.7
2015-Aug-18 11:33S 30°02' E 031°21'2 2.4
2015-Aug-18 10:33S 30°01' E 031°23'3 3.3
2015-Aug-18 09:33S 29°58' E 031°26'3 3.2
2015-Aug-18 08:33S 29°56' E 031°28'6 5.6
2015-Aug-18 07:33S 29°52' E 031°22'1 0.9
2015-Aug-18 06:34S 29°53' E 031°23'1 0.5
2015-Aug-18 05:34S 29°54' E 031°23'0 0.4
2015-Aug-18 04:33S 29°54' E 031°23'0 0.3
2015-Aug-18 04:11S 29°54' E 031°23'0 0.3
2015-Aug-18 04:09S 29°54' E 031°23'0 0.4
2015-Aug-18 03:33S 29°54' E 031°23'0 0.4
2015-Aug-18 02:34S 29°55' E 031°23'0 0.2
2015-Aug-18 01:34S 29°55' E 031°23'0 0.3
2015-Aug-18 00:34S 29°55' E 031°23'0 0.3
2015-Aug-17 23:33S 29°55' E 031°23'0 0.5
2015-Aug-17 22:34S 29°56' E 031°23'2 1.8
2015-Aug-17 21:34S 29°57' E 031°23'3 3.1
2015-Aug-17 20:34S 30°00' E 031°22'1 0.9
2015-Aug-17 19:33S 29°59' E 031°22'1 0.7
2015-Aug-17 18:34S 29°59' E 031°23'1 1.4
2015-Aug-17 17:34S 29°58' E 031°23'1313.2
2015-Aug-17 16:34S 29°46' E 031°29'1312.5
2015-Aug-17 15:34S 29°33' E 031°30'1 1.0
2015-Aug-17 14:34S 29°34' E 031°30'1 1.2
2015-Aug-17 13:34S 29°35' E 031°30'1 1.3
2015-Aug-17 12:34S 29°37' E 031°30'1 1.2
2015-Aug-17 11:34S 29°38' E 031°31'1 1.3
2015-Aug-17 10:34S 29°39' E 031°31'1 1.2
2015-Aug-17 09:34S 29°40' E 031°31'1 1.2
2015-Aug-17 08:34S 29°41' E 031°31'1 1.1
2015-Aug-17 07:34S 29°43' E 031°31'1 1.0
2015-Aug-17 06:34S 29°44' E 031°31'1 0.9
2015-Aug-17 05:34S 29°44' E 031°31'1 0.9
2015-Aug-17 04:34S 29°45' E 031°31'1 1.2
2015-Aug-17 03:34S 29°47' E 031°31'1 1.4
2015-Aug-17 02:33S 29°48' E 031°30'1 1.2
2015-Aug-17 01:34S 29°49' E 031°30'1 1.0
2015-Aug-17 00:34S 29°50' E 031°29'1 0.8
2015-Aug-16 23:34S 29°50' E 031°28'1 1.1
2015-Aug-16 22:34S 29°51' E 031°27'1 1.1
2015-Aug-16 21:33S 29°52' E 031°26'1 1.0
2015-Aug-16 20:34S 29°53' E 031°26'1 1.2
2015-Aug-16 19:34S 29°54' E 031°26'1 1.2
2015-Aug-16 18:34S 29°55' E 031°26'1 0.9
2015-Aug-16 17:34S 29°55' E 031°27'2 1.7
2015-Aug-16 16:34S 29°54' E 031°28'1414.0
2015-Aug-16 15:33S 29°41' E 031°23'8 7.8
2015-Aug-16 14:33S 29°34' E 031°20'2 1.7
2015-Aug-16 13:33S 29°35' E 031°20'2 1.7
2015-Aug-16 12:33S 29°37' E 031°20'2 1.8
2015-Aug-16 11:33S 29°39' E 031°20'2 1.9
2015-Aug-16 10:33S 29°41' E 031°20'2 1.8
2015-Aug-16 09:33S 29°42' E 031°20'2 1.8
2015-Aug-16 08:33S 29°44' E 031°19'2 1.8
2015-Aug-16 07:33S 29°46' E 031°19'2 1.7
2015-Aug-16 06:33S 29°48' E 031°19'2 1.8
2015-Aug-16 05:33S 29°49' E 031°18'2 1.9
2015-Aug-16 04:33S 29°51' E 031°17'2 1.8
2015-Aug-16 03:33S 29°53' E 031°17'2 2.1
2015-Aug-16 02:33S 29°55' E 031°16'2 2.2
2015-Aug-16 01:33S 29°57' E 031°16'2 1.8
2015-Aug-16 00:33S 29°59' E 031°15'1 0.8
2015-Aug-15 23:33S 29°58' E 031°15'1 1.4
2015-Aug-15 22:33S 29°57' E 031°16'1 1.4
2015-Aug-15 21:33S 29°56' E 031°17'2 1.6
2015-Aug-15 20:33S 29°55' E 031°19'2 1.7
2015-Aug-15 19:33S 29°54' E 031°20'0 0.3
2015-Aug-15 18:33S 29°54' E 031°20'1110.9
2015-Aug-15 17:33S 30°05' E 031°18'1212.5
2015-Aug-15 16:33S 30°16' E 031°14'6 6.1
2015-Aug-15 15:33S 30°22' E 031°10'5 4.9
2015-Aug-15 14:33S 30°18' E 031°14'5 5.2
2015-Aug-15 13:33S 30°14' E 031°18'6 5.6
2015-Aug-15 12:33S 30°10' E 031°22'5 5.2
2015-Aug-15 11:33S 30°06' E 031°25'5 5.0
2015-Aug-15 10:33S 30°02' E 031°29'5 5.1
2015-Aug-15 09:33S 29°58' E 031°33'5 4.7
2015-Aug-15 08:33S 29°54' E 031°36'8 7.6
2015-Aug-15 07:33S 29°47' E 031°32'7 7.1
2015-Aug-15 06:33S 29°43' E 031°25'1 1.5
2015-Aug-15 05:33S 29°42' E 031°27'1 1.3
2015-Aug-15 04:33S 29°42' E 031°28'1 1.1
2015-Aug-15 03:33S 29°41' E 031°29'1 0.7
2015-Aug-15 02:33S 29°40' E 031°29'1 0.8
2015-Aug-15 01:33S 29°40' E 031°30'1 0.8
2015-Aug-15 00:33S 29°39' E 031°30'1 0.7
2015-Aug-14 23:33S 29°39' E 031°31'1 1.0
2015-Aug-14 22:33S 29°39' E 031°32'1 1.2
2015-Aug-14 21:33S 29°39' E 031°33'1 1.5
2015-Aug-14 20:33S 29°40' E 031°35'1 1.5
2015-Aug-14 19:33S 29°40' E 031°37'1 1.3
2015-Aug-14 18:33S 29°40' E 031°38'8 7.7
2015-Aug-14 17:33S 29°42' E 031°29'6 6.0
2015-Aug-14 16:33S 29°42' E 031°22'1 0.6
2015-Aug-14 15:33S 29°42' E 031°23'1 0.6
2015-Aug-14 14:33S 29°42' E 031°24'0 0.5
2015-Aug-14 13:33S 29°43' E 031°24'0 0.4
2015-Aug-14 12:33S 29°43' E 031°24'0 0.4
2015-Aug-14 11:33S 29°43' E 031°24'0 0.4
2015-Aug-14 10:33S 29°44' E 031°24'0 0.5
2015-Aug-14 09:33S 29°44' E 031°24'1 0.7
2015-Aug-14 08:33S 29°45' E 031°24'1 0.9
2015-Aug-14 07:33S 29°46' E 031°24'1 0.8
2015-Aug-14 06:33S 29°47' E 031°24'1 0.9
2015-Aug-14 05:33S 29°47' E 031°24'1 0.9
2015-Aug-14 04:33S 29°48' E 031°24'1 1.2
2015-Aug-14 03:33S 29°50' E 031°24'1 1.3
2015-Aug-14 02:33S 29°51' E 031°24'1 1.5
2015-Aug-14 01:33S 29°52' E 031°24'2 1.5
2015-Aug-14 00:33S 29°54' E 031°25'9 8.6
2015-Aug-13 23:33S 29°57' E 031°15'1313.3
2015-Aug-13 22:33S 30°07' E 031°05'1413.7
2015-Aug-13 21:33S 30°18' E 030°56'32612.5
2015-Aug-12 19:33S 33°55' E 026°08'24 6.9
2015-Aug-12 16:09S 33°48' E 025°41'0 0.0
2015-Aug-12 12:04S 33°48' E 025°41'  
Track history (hours):
 
Tides and Currents Weather Stations Pressure Air Temp Water Temp Dewpoint Dewpoint Depression Visibility Wind Speed Wind Dir Waves Ship Positions

MSC Maya

Last reported at 2015-Aug-21 17:14 UTC. Time now 2015-Sep-05 14:23 UTC.
Position S 33°52' E 026°40'.
Warning: this ship's position is 14 days out of date.

Length 242 m; draft 7.5 m.

Type: Cargo ship. MMSI: 351384000.

Date/timePositionNaut miles runAvg speedWind from/ knotsBaromVisibWave heightAir tempDewpointWater temp
2015-Aug-21 17:14S 33°52' E 026°40'30214.5
2015-Aug-20 20:25S 30°19' E 030°52'1416.5
2015-Aug-20 19:33S 30°06' E 031°00'1414.5
2015-Aug-20 18:33S 29°53' E 031°07'5 5.1
2015-Aug-20 17:33S 29°53' E 031°02'0 0.2
2015-Aug-20 16:33S 29°53' E 031°01'0 0.0
2015-Aug-20 15:33S 29°53' E 031°01'0 0.0
2015-Aug-20 14:30S 29°53' E 031°01'0 0.0
2015-Aug-20 13:33S 29°53' E 031°01'0 0.0
2015-Aug-20 12:24S 29°53' E 031°01'0 0.0
2015-Aug-20 11:33S 29°53' E 031°01'0 0.0
2015-Aug-20 10:30S 29°53' E 031°01'0 0.0
2015-Aug-20 09:33S 29°53' E 031°01'0 0.0
2015-Aug-20 08:30S 29°53' E 031°01'0 0.0
2015-Aug-20 07:30S 29°53' E 031°01'0 0.0
2015-Aug-20 06:32S 29°53' E 031°01'0 0.0
2015-Aug-20 05:29S 29°53' E 031°01'0 0.0
2015-Aug-20 04:32S 29°53' E 031°01'0 0.0
2015-Aug-20 03:32S 29°53' E 031°01'0 0.0
2015-Aug-20 02:32S 29°53' E 031°01'0 0.0
2015-Aug-20 01:32S 29°53' E 031°01'0 0.0
2015-Aug-20 00:32S 29°53' E 031°01'0 0.0
2015-Aug-19 23:32S 29°53' E 031°01'0 0.0
2015-Aug-19 22:32S 29°53' E 031°01'0 0.0
2015-Aug-19 21:32S 29°53' E 031°01'0 0.0
2015-Aug-19 20:32S 29°53' E 031°01'0 0.0
2015-Aug-19 19:29S 29°53' E 031°01'0 0.0
2015-Aug-19 18:32S 29°53' E 031°01'0 0.0
2015-Aug-19 17:33S 29°53' E 031°01'0 0.0
2015-Aug-19 16:33S 29°53' E 031°01'0 0.0
2015-Aug-19 15:33S 29°53' E 031°01'0 0.0
2015-Aug-19 14:33S 29°53' E 031°01'0 0.0
2015-Aug-19 13:33S 29°53' E 031°01'0 0.0
2015-Aug-19 12:31S 29°53' E 031°01'0 0.0
2015-Aug-19 11:33S 29°53' E 031°01'0 0.0
2015-Aug-19 10:33S 29°53' E 031°01'2 1.7
2015-Aug-19 09:33S 29°52' E 031°03'6 6.1
2015-Aug-19 08:33S 29°48' E 031°08'5 4.6
2015-Aug-19 07:33S 29°50' E 031°13'3 3.2
2015-Aug-19 06:33S 29°53' E 031°15'1 1.2
2015-Aug-19 05:33S 29°53' E 031°14'3 2.8
2015-Aug-19 04:33S 29°51' E 031°12'3 2.5
2015-Aug-19 03:33S 29°53' E 031°12'2 2.3
2015-Aug-19 02:33S 29°56' E 031°12'2 2.2
2015-Aug-19 01:33S 29°58' E 031°13'1 1.3
2015-Aug-19 00:33S 29°59' E 031°13'1 0.9
2015-Aug-18 23:33S 29°59' E 031°14'2 1.6
2015-Aug-18 22:33S 29°58' E 031°15'2 1.8
2015-Aug-18 21:33S 29°57' E 031°17'2 1.9
2015-Aug-18 20:33S 29°56' E 031°19'2 2.2
2015-Aug-18 19:33S 29°54' E 031°21'2 2.1
2015-Aug-18 18:33S 29°53' E 031°23'9 9.3
2015-Aug-18 17:33S 30°02' E 031°18'8 7.6
2015-Aug-18 16:33S 30°08' E 031°13'2 1.9
2015-Aug-18 15:33S 30°06' E 031°15'2 1.8
2015-Aug-18 14:33S 30°05' E 031°16'2 1.9
2015-Aug-18 13:33S 30°04' E 031°18'2 1.7
2015-Aug-18 12:33S 30°03' E 031°20'2 1.7
2015-Aug-18 11:33S 30°02' E 031°21'2 2.4
2015-Aug-18 10:33S 30°01' E 031°23'3 3.3
2015-Aug-18 09:33S 29°58' E 031°26'3 3.2
2015-Aug-18 08:33S 29°56' E 031°28'6 5.6
2015-Aug-18 07:33S 29°52' E 031°22'1 0.9
2015-Aug-18 06:34S 29°53' E 031°23'1 0.5
2015-Aug-18 05:34S 29°54' E 031°23'0 0.4
2015-Aug-18 04:33S 29°54' E 031°23'0 0.3
2015-Aug-18 04:11S 29°54' E 031°23'0 0.3
2015-Aug-18 04:09S 29°54' E 031°23'0 0.4
2015-Aug-18 03:33S 29°54' E 031°23'0 0.4
2015-Aug-18 02:34S 29°55' E 031°23'0 0.2
2015-Aug-18 01:34S 29°55' E 031°23'0 0.3
2015-Aug-18 00:34S 29°55' E 031°23'0 0.3
2015-Aug-17 23:33S 29°55' E 031°23'0 0.5
2015-Aug-17 22:34S 29°56' E 031°23'2 1.8
2015-Aug-17 21:34S 29°57' E 031°23'3 3.1
2015-Aug-17 20:34S 30°00' E 031°22'1 0.9
2015-Aug-17 19:33S 29°59' E 031°22'1 0.7
2015-Aug-17 18:34S 29°59' E 031°23'1 1.4
2015-Aug-17 17:34S 29°58' E 031°23'1313.2
2015-Aug-17 16:34S 29°46' E 031°29'1312.5
2015-Aug-17 15:34S 29°33' E 031°30'1 1.0
2015-Aug-17 14:34S 29°34' E 031°30'1 1.2
2015-Aug-17 13:34S 29°35' E 031°30'1 1.3
2015-Aug-17 12:34S 29°37' E 031°30'1 1.2
2015-Aug-17 11:34S 29°38' E 031°31'1 1.3
2015-Aug-17 10:34S 29°39' E 031°31'1 1.2
2015-Aug-17 09:34S 29°40' E 031°31'1 1.2
2015-Aug-17 08:34S 29°41' E 031°31'1 1.1
2015-Aug-17 07:34S 29°43' E 031°31'1 1.0
2015-Aug-17 06:34S 29°44' E 031°31'1 0.9
2015-Aug-17 05:34S 29°44' E 031°31'1 0.9
2015-Aug-17 04:34S 29°45' E 031°31'1 1.2
2015-Aug-17 03:34S 29°47' E 031°31'1 1.4
2015-Aug-17 02:33S 29°48' E 031°30'1 1.2
2015-Aug-17 01:34S 29°49' E 031°30'1 1.0
2015-Aug-17 00:34S 29°50' E 031°29'1 0.8
2015-Aug-16 23:34S 29°50' E 031°28'1 1.1
2015-Aug-16 22:34S 29°51' E 031°27'1 1.1
2015-Aug-16 21:33S 29°52' E 031°26'1 1.0
2015-Aug-16 20:34S 29°53' E 031°26'1 1.2
2015-Aug-16 19:34S 29°54' E 031°26'1 1.2
2015-Aug-16 18:34S 29°55' E 031°26'1 0.9
2015-Aug-16 17:34S 29°55' E 031°27'2 1.7
2015-Aug-16 16:34S 29°54' E 031°28'1414.0
2015-Aug-16 15:33S 29°41' E 031°23'8 7.8
2015-Aug-16 14:33S 29°34' E 031°20'2 1.7
2015-Aug-16 13:33S 29°35' E 031°20'2 1.7
2015-Aug-16 12:33S 29°37' E 031°20'2 1.8
2015-Aug-16 11:33S 29°39' E 031°20'2 1.9
2015-Aug-16 10:33S 29°41' E 031°20'2 1.8
2015-Aug-16 09:33S 29°42' E 031°20'2 1.8
2015-Aug-16 08:33S 29°44' E 031°19'2 1.8
2015-Aug-16 07:33S 29°46' E 031°19'2 1.7
2015-Aug-16 06:33S 29°48' E 031°19'2 1.8
2015-Aug-16 05:33S 29°49' E 031°18'2 1.9
2015-Aug-16 04:33S 29°51' E 031°17'2 1.8
2015-Aug-16 03:33S 29°53' E 031°17'2 2.1
2015-Aug-16 02:33S 29°55' E 031°16'2 2.2
2015-Aug-16 01:33S 29°57' E 031°16'2 1.8
2015-Aug-16 00:33S 29°59' E 031°15'1 0.8
2015-Aug-15 23:33S 29°58' E 031°15'1 1.4
2015-Aug-15 22:33S 29°57' E 031°16'1 1.4
2015-Aug-15 21:33S 29°56' E 031°17'2 1.6
2015-Aug-15 20:33S 29°55' E 031°19'2 1.7
2015-Aug-15 19:33S 29°54' E 031°20'0 0.3
2015-Aug-15 18:33S 29°54' E 031°20'1110.9
2015-Aug-15 17:33S 30°05' E 031°18'1212.5
2015-Aug-15 16:33S 30°16' E 031°14'6 6.1
2015-Aug-15 15:33S 30°22' E 031°10'5 4.9
2015-Aug-15 14:33S 30°18' E 031°14'5 5.2
2015-Aug-15 13:33S 30°14' E 031°18'6 5.6
2015-Aug-15 12:33S 30°10' E 031°22'5 5.2
2015-Aug-15 11:33S 30°06' E 031°25'5 5.0
2015-Aug-15 10:33S 30°02' E 031°29'5 5.1
2015-Aug-15 09:33S 29°58' E 031°33'5 4.7
2015-Aug-15 08:33S 29°54' E 031°36'8 7.6
2015-Aug-15 07:33S 29°47' E 031°32'7 7.1
2015-Aug-15 06:33S 29°43' E 031°25'1 1.5
2015-Aug-15 05:33S 29°42' E 031°27'1 1.3
2015-Aug-15 04:33S 29°42' E 031°28'1 1.1
2015-Aug-15 03:33S 29°41' E 031°29'1 0.7
2015-Aug-15 02:33S 29°40' E 031°29'1 0.8
2015-Aug-15 01:33S 29°40' E 031°30'1 0.8
2015-Aug-15 00:33S 29°39' E 031°30'1 0.7
2015-Aug-14 23:33S 29°39' E 031°31'1 1.0
2015-Aug-14 22:33S 29°39' E 031°32'1 1.2
2015-Aug-14 21:33S 29°39' E 031°33'1 1.5
2015-Aug-14 20:33S 29°40' E 031°35'1 1.5
2015-Aug-14 19:33S 29°40' E 031°37'1 1.3
2015-Aug-14 18:33S 29°40' E 031°38'8 7.7
2015-Aug-14 17:33S 29°42' E 031°29'6 6.0
2015-Aug-14 16:33S 29°42' E 031°22'1 0.6
2015-Aug-14 15:33S 29°42' E 031°23'1 0.6
2015-Aug-14 14:33S 29°42' E 031°24'0 0.5
2015-Aug-14 13:33S 29°43' E 031°24'0 0.4
2015-Aug-14 12:33S 29°43' E 031°24'0 0.4
2015-Aug-14 11:33S 29°43' E 031°24'0 0.4
2015-Aug-14 10:33S 29°44' E 031°24'0 0.5
2015-Aug-14 09:33S 29°44' E 031°24'1 0.7
2015-Aug-14 08:33S 29°45' E 031°24'1 0.9
2015-Aug-14 07:33S 29°46' E 031°24'1 0.8
2015-Aug-14 06:33S 29°47' E 031°24'1 0.9
2015-Aug-14 05:33S 29°47' E 031°24'1 0.9
2015-Aug-14 04:33S 29°48' E 031°24'1 1.2
2015-Aug-14 03:33S 29°50' E 031°24'1 1.3
2015-Aug-14 02:33S 29°51' E 031°24'1 1.5
2015-Aug-14 01:33S 29°52' E 031°24'2 1.5
2015-Aug-14 00:33S 29°54' E 031°25'9 8.6
2015-Aug-13 23:33S 29°57' E 031°15'1313.3
2015-Aug-13 22:33S 30°07' E 031°05'1413.7
2015-Aug-13 21:33S 30°18' E 030°56'32612.5
2015-Aug-12 19:33S 33°55' E 026°08'24 6.9
2015-Aug-12 16:09S 33°48' E 025°41'0 0.0
2015-Aug-12 12:04S 33°48' E 025°41'  

Dump ship's entire track history